Date,TemperatureHighF,TemperatureAvgF,TemperatureLowF,DewpointHighF,DewpointAvgF,DewpointLowF,HumidityHigh,HumidityAvg,HumidityLow,PressureMaxIn,PressureMinIn,WindSpeedMaxMPH,WindSpeedAvgMPH,GustSpeedMaxMPH,PrecipitationSumIn
2013-7-1,80.6,74.5,69.1,75.5,72.2,68.3,99,93,81,29.99,29.83,0,0,0,1.29
2013-7-2,76.4,73.3,71.4,74.2,72.3,70.2,98,97,92,30.18,29.99,0,0,0,0.47
2013-7-3,85.3,76.7,72.8,78.3,74.5,72.2,99,93,73,30.24,30.15,0,0,0,0.86
2013-7-4,87.9,78.6,72.5,77.3,73.7,70.1,99,86,59,30.28,30.17,0,0,0,0.00
2013-7-5,88.9,79.4,71.3,76.7,73.5,70.1,98,83,61,30.27,30.15,0,0,0,0.00
2013-7-6,87.2,78.6,73.1,76.8,73.7,71.6,97,85,68,30.25,30.11,0,0,0,0.00
2013-7-7,87.5,78.1,68.5,77.2,73.3,67.3,98,86,66,30.19,30.05,0,0,0,0.03
2013-7-8,85.6,76.3,71.1,77.3,73.3,70.2,99,91,69,30.17,30.08,0,0,0,0.61
2013-7-9,86.6,75.8,70.8,79.3,73.7,69.9,99,94,72,30.15,30.06,0,0,0,0.81
2013-7-10,86.7,78.0,72.0,78.3,74.3,70.4,99,89,71,30.10,29.94,0,0,0,0.44
2013-7-11,80.9,74.5,72.0,76.3,73.2,70.8,99,96,84,29.99,29.87,0,0,0,0.25
2013-7-12,74.2,72.2,70.2,72.3,70.9,69.3,99,96,90,30.02,29.87,0,0,0,0.02
2013-7-13,76.7,72.7,69.6,75.6,71.9,68.7,99,97,94,30.18,30.01,0,0,0,1.01
2013-7-14,86.7,77.5,70.3,76.9,73.3,69.7,100,88,69,30.30,30.19,0,0,0,0.01
2013-7-15,89.8,78.2,69.2,77.5,72.6,68.3,99,85,56,30.32,30.24,0,0,0,0.00
2013-7-16,93.2,80.1,68.9,80.9,74.1,68.0,99,83,59,30.26,30.16,0,0,0,0.00
2013-7-17,91.9,82.1,73.4,78.7,75.4,72.2,98,82,58,30.22,30.09,0,0,0,0.00
2013-7-18,93.6,82.4,73.8,81.3,76.9,72.7,98,85,57,30.13,30.02,0,0,0,0.01
2013-7-19,90.7,81.3,73.8,79.5,75.8,72.9,99,84,63,30.08,29.97,0,0,0,0.00
2013-7-20,88.4,79.9,75.2,78.6,74.7,72.5,92,85,69,30.02,29.90,0,0,0,0.00
2013-7-21,88.3,78.4,73.7,77.8,74.1,71.3,96,87,66,29.99,29.89,0,0,0,0.00
2013-7-22,86.1,78.3,71.6,77.6,74.1,70.7,98,88,72,29.95,29.80,0,0,0,0.00
2013-7-23,88.4,80.1,74.9,76.7,73.8,72.5,93,82,63,29.83,29.71,0,0,0,0.00
2013-7-24,92.0,79.8,69.9,77.5,72.3,68.7,98,80,53,29.84,29.71,0,0,0,0.00
2013-7-25,77.9,72.8,67.9,71.4,69.0,65.8,95,88,77,30.03,29.81,0,0,0,0.01
2013-7-26,84.2,72.9,61.9,70.6,65.3,60.7,98,79,50,30.11,30.01,0,0,0,0.00
2013-7-27,86.2,73.7,65.5,74.2,68.8,64.2,99,86,57,30.06,29.92,0,0,0,0.09
2013-7-28,86.9,76.4,69.8,75.2,71.6,69.2,99,86,61,29.99,29.91,0,0,0,0.00
2013-7-29,86.7,75.3,69.2,72.9,69.5,64.3,98,84,56,30.15,29.98,0,0,0,0.06
2013-7-30,87.5,74.8,62.1,73.6,67.0,60.0,95,78,52,30.22,30.13,0,0,0,0.00
2013-7-31,82.5,73.7,70.7,75.0,71.1,68.9,98,92,75,30.14,30.00,0,0,0,0.60